Time;durP1;ratioP1;P1;durP2;ratioP2;P2;SDS_P1;SDS_P2;PMS_P1;PMS_P2;Temp;Humidity;BMP_temperature;BMP_pressure;BME280_temperature;BME280_humidity;BME280_pressure;Samples;Min_cycle;Max_cycle;Signal;HPM_P1;HPM_P2
2023/04/22 00:04:13;;;;;;;;;;;21.60;54.40;;;;;;4766639;55;20052;-32
2023/04/22 00:09:14;;;;;;;;;;;21.60;54.50;;;;;;4781993;55;20335;-30
2023/04/22 00:14:15;;;;;;;;;;;21.60;54.40;;;;;;4903012;55;20128;-30
2023/04/22 00:19:15;;;;;;;;;;;21.60;54.40;;;;;;4753471;55;20120;-32
2023/04/22 00:24:16;;;;;;;;;;;21.60;54.40;;;;;;4792790;55;20306;-31
2023/04/22 00:29:17;;;;;;;;;;;21.60;55.00;;;;;;4884736;55;20120;-28
2023/04/22 00:34:18;;;;;;;;;;;21.60;54.40;;;;;;4746338;58;20120;-32
2023/04/22 00:39:19;;;;;;;;;;;21.60;54.40;;;;;;4747211;58;20286;-32
2023/04/22 00:44:20;;;;;;;;;;;21.60;54.30;;;;;;4806318;55;20121;-30
2023/04/22 00:49:20;;;;;;;;;;;21.60;54.30;;;;;;4745976;58;20072;-30
2023/04/22 00:54:22;;;;;;;;;;;21.60;54.30;;;;;;4758748;55;20092;-29
2023/04/22 00:59:23;;;;;;;;;;;21.60;54.40;;;;;;4793790;55;20311;-29
2023/04/22 01:04:23;;;;;;;;;;;21.60;54.40;;;;;;4780250;55;20068;-28
2023/04/22 01:09:24;;;;;;;;;;;21.60;54.40;;;;;;4784583;55;20121;-26
2023/04/22 01:14:25;;;;;;;;;;;21.60;54.30;;;;;;4803515;55;20144;-26
2023/04/22 01:19:25;;;;;;;;;;;21.60;54.30;;;;;;4765708;55;20315;-34
2023/04/22 01:24:27;;;;;;;;;;;21.60;54.30;;;;;;4746700;58;20113;-32
2023/04/22 01:29:27;;;;;;;;;;;21.60;54.20;;;;;;4862849;55;20116;-31
2023/04/22 01:34:29;;;;;;;;;;;21.60;54.30;;;;;;4752404;55;20089;-31
2023/04/22 01:39:29;;;;;;;;;;;21.60;54.20;;;;;;4779235;55;20057;-26
2023/04/22 01:44:30;;;;;;;;;;;21.60;54.20;;;;;;4746572;58;20048;-27
2023/04/22 01:49:31;;;;;;;;;;;21.60;54.20;;;;;;4745661;58;20145;-30
2023/04/22 01:54:32;;;;;;;;;;;21.60;54.20;;;;;;4865460;55;20366;-31
2023/04/22 01:59:32;;;;;;;;;;;21.60;54.20;;;;;;4811382;55;20291;-30
2023/04/22 02:04:33;;;;;;;;;;;21.60;54.10;;;;;;4780082;55;20442;-29
2023/04/22 02:09:34;;;;;;;;;;;21.60;54.20;;;;;;4765067;55;20424;-31
2023/04/22 02:14:34;;;;;;;;;;;21.60;54.20;;;;;;4745988;58;20295;-31
2023/04/22 02:19:35;;;;;;;;;;;21.60;54.20;;;;;;4765309;55;20069;-33
2023/04/22 02:24:36;;;;;;;;;;;21.60;54.10;;;;;;4746296;58;20271;-30
2023/04/22 02:29:36;;;;;;;;;;;21.60;54.10;;;;;;4817345;55;20169;-31
2023/04/22 02:34:37;;;;;;;;;;;21.60;54.10;;;;;;4827295;55;20061;-27
2023/04/22 02:39:37;;;;;;;;;;;21.60;54.00;;;;;;4750319;55;20068;-25
2023/04/22 02:44:38;;;;;;;;;;;21.50;54.10;;;;;;4746123;58;20366;-29
2023/04/22 02:49:39;;;;;;;;;;;21.60;54.10;;;;;;4778584;55;20078;-27
2023/04/22 02:54:40;;;;;;;;;;;21.50;54.00;;;;;;4771865;55;20128;-28
2023/04/22 02:59:40;;;;;;;;;;;21.60;54.00;;;;;;4758073;55;20161;-29
2023/04/22 03:04:41;;;;;;;;;;;21.50;53.80;;;;;;4793086;55;20343;-29
2023/04/22 03:09:42;;;;;;;;;;;21.60;53.90;;;;;;4846738;55;20477;-30
2023/04/22 03:14:42;;;;;;;;;;;21.50;54.00;;;;;;4814688;55;20056;-29
2023/04/22 03:19:43;;;;;;;;;;;21.50;53.90;;;;;;4763727;55;20064;-28
2023/04/22 03:24:43;;;;;;;;;;;21.60;53.90;;;;;;4780035;55;20116;-28
2023/04/22 03:29:44;;;;;;;;;;;21.50;53.80;;;;;;4815556;55;20112;-32
2023/04/22 03:34:45;;;;;;;;;;;21.50;53.80;;;;;;4747087;58;20061;-30
2023/04/22 03:39:46;;;;;;;;;;;21.50;53.80;;;;;;4797858;55;20084;-30
2023/04/22 03:44:46;;;;;;;;;;;21.50;53.80;;;;;;4746657;56;20402;-31
2023/04/22 03:49:47;;;;;;;;;;;21.50;53.80;;;;;;4745899;58;20068;-28
2023/04/22 03:54:47;;;;;;;;;;;21.50;53.90;;;;;;4767708;55;20067;-29
2023/04/22 03:59:48;;;;;;;;;;;21.50;53.80;;;;;;4783959;55;20072;-27
2023/04/22 04:04:49;;;;;;;;;;;21.50;53.70;;;;;;4830782;55;20109;-29
2023/04/22 04:09:50;;;;;;;;;;;21.50;53.80;;;;;;4758169;55;20120;-28
2023/04/22 04:14:50;;;;;;;;;;;21.50;53.70;;;;;;4796159;55;20072;-30
2023/04/22 04:19:51;;;;;;;;;;;21.50;53.80;;;;;;4796085;55;20319;-30
2023/04/22 04:24:54;;;;;;;;;;;21.50;53.70;;;;;;4755644;55;20073;-28
2023/04/22 04:29:55;;;;;;;;;;;21.50;53.60;;;;;;4745851;58;20369;-27
2023/04/22 04:34:56;;;;;;;;;;;21.50;53.60;;;;;;4786261;55;20112;-26
2023/04/22 04:40:00;;;;;;;;;;;21.50;53.70;;;;;;4782264;55;20346;-29
2023/04/22 04:45:01;;;;;;;;;;;21.50;53.60;;;;;;4924970;55;20425;-27
2023/04/22 04:50:03;;;;;;;;;;;21.50;53.50;;;;;;4805315;55;20089;-29
2023/04/22 04:55:04;;;;;;;;;;;21.50;53.50;;;;;;4746576;58;20283;-32
2023/04/22 05:00:06;;;;;;;;;;;21.50;53.60;;;;;;4762308;55;20387;-30
2023/04/22 05:05:07;;;;;;;;;;;21.50;53.60;;;;;;4776809;55;20306;-31
2023/04/22 05:10:09;;;;;;;;;;;21.50;53.50;;;;;;4788875;55;20112;-30
2023/04/22 05:15:10;;;;;;;;;;;21.50;53.50;;;;;;4746604;58;20120;-34
2023/04/22 05:20:10;;;;;;;;;;;21.50;53.50;;;;;;4767947;55;20354;-27
2023/04/22 05:25:11;;;;;;;;;;;21.50;53.50;;;;;;4823769;55;20048;-28
2023/04/22 05:30:12;;;;;;;;;;;21.50;53.40;;;;;;4760140;55;20335;-30
2023/04/22 05:35:12;;;;;;;;;;;21.50;53.50;;;;;;4778996;55;20068;-28
2023/04/22 05:40:13;;;;;;;;;;;21.50;53.40;;;;;;4874923;55;20084;-30
2023/04/22 05:45:14;;;;;;;;;;;21.50;53.40;;;;;;4747890;55;20108;-28
2023/04/22 05:50:18;;;;;;;;;;;21.50;53.50;;;;;;4827020;55;20314;-29
2023/04/22 05:55:18;;;;;;;;;;;21.50;54.10;;;;;;4795449;55;20116;-27
2023/04/22 06:00:19;;;;;;;;;;;21.50;53.50;;;;;;4746265;58;20069;-30
2023/04/22 06:05:23;;;;;;;;;;;21.50;53.40;;;;;;4751736;55;20169;-29
2023/04/22 06:10:23;;;;;;;;;;;21.50;53.40;;;;;;4839091;55;20355;-28
2023/04/22 06:15:24;;;;;;;;;;;21.50;53.40;;;;;;4841808;55;20152;-29
2023/04/22 06:20:25;;;;;;;;;;;21.50;53.40;;;;;;4823234;55;20060;-29
2023/04/22 06:25:26;;;;;;;;;;;21.50;53.40;;;;;;4746345;58;20114;-28
2023/04/22 06:30:29;;;;;;;;;;;21.50;53.30;;;;;;4782262;55;20049;-31
2023/04/22 06:35:30;;;;;;;;;;;21.50;53.30;;;;;;4849671;55;20084;-27
2023/04/22 06:40:31;;;;;;;;;;;21.50;53.30;;;;;;4761576;55;20320;-28
2023/04/22 06:45:32;;;;;;;;;;;21.50;53.30;;;;;;4767040;55;20073;-30
2023/04/22 06:50:33;;;;;;;;;;;21.50;53.30;;;;;;4791378;55;20151;-33
2023/04/22 06:55:34;;;;;;;;;;;21.50;54.00;;;;;;4798149;55;20332;-29
2023/04/22 07:00:35;;;;;;;;;;;21.50;53.30;;;;;;4746716;58;20291;-29
2023/04/22 07:05:35;;;;;;;;;;;21.50;53.40;;;;;;4770662;55;20076;-30
2023/04/22 07:10:36;;;;;;;;;;;21.50;53.40;;;;;;4746051;58;20109;-26
2023/04/22 07:15:37;;;;;;;;;;;21.50;53.60;;;;;;4746625;58;20351;-28
2023/04/22 07:20:37;;;;;;;;;;;21.50;53.30;;;;;;4865563;55;20172;-27
2023/04/22 07:25:38;;;;;;;;;;;21.50;53.40;;;;;;4794690;55;20064;-28
2023/04/22 07:30:39;;;;;;;;;;;21.50;53.30;;;;;;4794414;55;20082;-29
2023/04/22 07:35:42;;;;;;;;;;;21.50;53.30;;;;;;4850450;55;20124;-27
2023/04/22 07:40:43;;;;;;;;;;;21.50;53.30;;;;;;4822240;55;20403;-33
2023/04/22 07:45:44;;;;;;;;;;;21.50;53.30;;;;;;4840048;55;20060;-31
2023/04/22 07:50:44;;;;;;;;;;;21.50;53.30;;;;;;4751599;55;20680;-30
2023/04/22 07:55:45;;;;;;;;;;;21.50;53.30;;;;;;4746942;58;20056;-28
2023/04/22 08:00:45;;;;;;;;;;;21.50;53.40;;;;;;4771440;55;20108;-28
2023/04/22 08:05:46;;;;;;;;;;;21.50;53.30;;;;;;4746606;58;20320;-27
2023/04/22 08:10:47;;;;;;;;;;;21.50;53.40;;;;;;4745438;57;20073;-29
2023/04/22 08:15:47;;;;;;;;;;;21.50;53.40;;;;;;4746514;58;20065;-31
2023/04/22 08:20:49;;;;;;;;;;;21.50;53.40;;;;;;4801308;55;20113;-27
2023/04/22 08:25:52;;;;;;;;;;;21.50;53.40;;;;;;4825872;55;20079;-28
2023/04/22 08:30:53;;;;;;;;;;;21.50;53.40;;;;;;4791502;55;20073;-30
2023/04/22 08:35:53;;;;;;;;;;;21.50;53.40;;;;;;4851044;55;20085;-32
2023/04/22 08:40:55;;;;;;;;;;;21.50;53.40;;;;;;4763383;55;20116;-28
2023/04/22 08:45:55;;;;;;;;;;;21.50;53.40;;;;;;4751814;55;20113;-30
2023/04/22 08:50:56;;;;;;;;;;;21.50;53.40;;;;;;4745570;58;20132;-27
2023/04/22 08:55:57;;;;;;;;;;;21.50;53.40;;;;;;4746035;58;20334;-28
2023/04/22 09:00:58;;;;;;;;;;;21.50;53.30;;;;;;4746476;58;20069;-27
2023/04/22 09:06:02;;;;;;;;;;;21.60;53.40;;;;;;4804389;55;20053;-28
2023/04/22 09:11:03;;;;;;;;;;;21.50;53.30;;;;;;4764974;55;20127;-28
2023/04/22 09:16:04;;;;;;;;;;;21.50;53.30;;;;;;4745798;58;20109;-27
2023/04/22 09:21:04;;;;;;;;;;;21.50;53.30;;;;;;4793742;55;20115;-29
2023/04/22 09:26:06;;;;;;;;;;;21.50;53.40;;;;;;4843779;55;20121;-30
2023/04/22 09:31:12;;;;;;;;;;;21.50;53.30;;;;;;4790128;55;20184;-29
2023/04/22 09:36:13;;;;;;;;;;;21.60;53.40;;;;;;4746673;55;20068;-28
2023/04/22 09:41:13;;;;;;;;;;;21.60;53.30;;;;;;4774698;55;20104;-28
2023/04/22 09:46:14;;;;;;;;;;;21.50;53.30;;;;;;4796002;55;20112;-28
2023/04/22 09:51:16;;;;;;;;;;;21.60;53.30;;;;;;4745494;57;20350;-29
2023/04/22 09:56:16;;;;;;;;;;;21.60;53.30;;;;;;4816013;55;20290;-29
2023/04/22 10:01:18;;;;;;;;;;;21.60;53.30;;;;;;4749502;55;20166;-30
2023/04/22 10:06:19;;;;;;;;;;;21.60;53.20;;;;;;4759632;55;20072;-30
2023/04/22 10:11:19;;;;;;;;;;;21.60;53.30;;;;;;4745630;55;20164;-27
2023/04/22 10:16:21;;;;;;;;;;;21.60;53.30;;;;;;4746632;58;20535;-30
2023/04/22 10:21:24;;;;;;;;;;;21.60;53.30;;;;;;4746580;55;20060;-29
2023/04/22 10:26:42;;;;;;;;;;;21.60;53.30;;;;;;4775395;55;20294;-27
2023/04/22 10:31:43;;;;;;;;;;;21.60;53.30;;;;;;4750376;55;20310;-30
2023/04/22 10:40:16;;;;;;;;;;;21.60;53.30;;;;;;4788846;55;20307;-29
2023/04/22 10:45:19;;;;;;;;;;;21.60;53.30;;;;;;4836868;55;20075;-29
2023/04/22 10:50:22;;;;;;;;;;;21.60;53.30;;;;;;4771234;55;20168;-33
2023/04/22 10:55:24;;;;;;;;;;;21.60;53.30;;;;;;4752634;55;20390;-30
2023/04/22 11:00:29;;;;;;;;;;;21.60;53.30;;;;;;4748447;55;20429;-29
2023/04/22 11:05:31;;;;;;;;;;;21.60;53.30;;;;;;4783960;55;20099;-31
2023/04/22 11:10:48;;;;;;;;;;;21.60;53.30;;;;;;4745462;58;20080;-29
2023/04/22 11:15:50;;;;;;;;;;;21.60;53.30;;;;;;4746527;55;20121;-30
2023/04/22 11:20:52;;;;;;;;;;;21.60;53.30;;;;;;4746632;55;20064;-27
2023/04/22 11:25:57;;;;;;;;;;;21.60;53.30;;;;;;4827062;55;20306;-27
2023/04/22 11:31:05;;;;;;;;;;;21.60;53.30;;;;;;4746681;55;20298;-28
2023/04/22 11:36:09;;;;;;;;;;;21.60;53.20;;;;;;4835617;55;20207;-28
2023/04/22 11:41:09;;;;;;;;;;;21.60;53.30;;;;;;4748399;55;20130;-27
2023/04/22 11:46:10;;;;;;;;;;;21.60;53.20;;;;;;4748525;55;20068;-31
2023/04/22 11:51:11;;;;;;;;;;;21.60;53.20;;;;;;4773591;55;20259;-28
2023/04/22 11:56:12;;;;;;;;;;;21.60;53.10;;;;;;4773959;55;20298;-29
2023/04/22 12:01:13;;;;;;;;;;;21.60;53.10;;;;;;4776116;55;20105;-29
2023/04/22 12:06:15;;;;;;;;;;;21.60;53.10;;;;;;4781497;55;20138;-30
2023/04/22 12:11:15;;;;;;;;;;;21.60;53.10;;;;;;4752274;55;20124;-29
2023/04/22 12:16:17;;;;;;;;;;;21.60;53.00;;;;;;4775521;55;20052;-31
2023/04/22 12:21:19;;;;;;;;;;;21.50;53.00;;;;;;4746687;55;20108;-29
2023/04/22 12:26:20;;;;;;;;;;;21.60;53.00;;;;;;4746243;58;20334;-30
2023/04/22 12:31:21;;;;;;;;;;;21.60;53.00;;;;;;4745977;58;20084;-30
2023/04/22 12:36:22;;;;;;;;;;;21.60;53.00;;;;;;4830536;55;20112;-31
2023/04/22 12:41:23;;;;;;;;;;;21.60;53.00;;;;;;4746753;55;20271;-31
2023/04/22 12:46:23;;;;;;;;;;;21.60;53.00;;;;;;4746619;58;20152;-30
2023/04/22 12:51:24;;;;;;;;;;;21.60;53.00;;;;;;4745378;58;20057;-27
2023/04/22 12:56:25;;;;;;;;;;;21.60;53.30;;;;;;4803527;55;20358;-26
2023/04/22 13:01:26;;;;;;;;;;;21.60;52.90;;;;;;4774794;55;20367;-29
2023/04/22 13:06:27;;;;;;;;;;;21.60;52.90;;;;;;4818877;55;20068;-28
2023/04/22 13:11:28;;;;;;;;;;;21.60;52.90;;;;;;4746912;55;20359;-32
2023/04/22 13:16:29;;;;;;;;;;;21.60;52.90;;;;;;4746357;58;20056;-31
2023/04/22 13:21:30;;;;;;;;;;;21.60;52.90;;;;;;4746260;58;20347;-28
2023/04/22 13:26:31;;;;;;;;;;;21.60;52.90;;;;;;4783344;55;20128;-31
2023/04/22 13:31:32;;;;;;;;;;;21.60;52.90;;;;;;4787020;55;20414;-28
2023/04/22 13:36:32;;;;;;;;;;;21.60;52.90;;;;;;4746446;58;20122;-30
2023/04/22 13:41:34;;;;;;;;;;;21.60;52.90;;;;;;4876075;55;20112;-33
2023/04/22 13:46:34;;;;;;;;;;;21.60;52.90;;;;;;4762329;55;20398;-25
2023/04/22 13:51:38;;;;;;;;;;;21.60;52.90;;;;;;4757387;55;20128;-27
2023/04/22 13:56:39;;;;;;;;;;;21.60;52.90;;;;;;4746404;58;20591;-28
2023/04/22 14:01:40;;;;;;;;;;;21.60;52.90;;;;;;4781664;55;20076;-28
2023/04/22 14:06:40;;;;;;;;;;;21.60;52.90;;;;;;4756180;55;20327;-32
2023/04/22 14:11:41;;;;;;;;;;;21.60;53.60;;;;;;4909898;55;20362;-28
2023/04/22 14:16:42;;;;;;;;;;;21.60;53.00;;;;;;4777100;55;20056;-32
2023/04/22 14:21:43;;;;;;;;;;;21.60;52.90;;;;;;4783240;55;20284;-30
2023/04/22 14:26:43;;;;;;;;;;;21.60;52.90;;;;;;4746355;55;20302;-32
2023/04/22 14:31:44;;;;;;;;;;;21.60;52.90;;;;;;4765890;55;20100;-31
2023/04/22 14:36:45;;;;;;;;;;;21.60;52.90;;;;;;4759306;55;20378;-30
2023/04/22 14:41:46;;;;;;;;;;;21.60;52.90;;;;;;4745952;58;20128;-30
2023/04/22 14:46:46;;;;;;;;;;;21.60;52.90;;;;;;4767800;55;20312;-30
2023/04/22 14:51:47;;;;;;;;;;;21.60;52.90;;;;;;4757982;55;20129;-30
2023/04/22 14:56:50;;;;;;;;;;;21.60;52.90;;;;;;4760782;55;20056;-27
2023/04/22 15:01:51;;;;;;;;;;;21.60;52.90;;;;;;4860596;55;20104;-28
2023/04/22 15:06:56;;;;;;;;;;;21.70;52.90;;;;;;4832004;55;20310;-30
2023/04/22 15:11:58;;;;;;;;;;;21.60;52.90;;;;;;4817139;55;20383;-31
2023/04/22 15:16:59;;;;;;;;;;;21.60;52.90;;;;;;4757913;55;20306;-27
2023/04/22 15:21:59;;;;;;;;;;;21.60;52.80;;;;;;4749630;55;20108;-29
2023/04/22 15:27:01;;;;;;;;;;;21.60;52.80;;;;;;4861321;55;20120;-28
2023/04/22 15:32:02;;;;;;;;;;;21.60;52.80;;;;;;4801861;55;20056;-30
2023/04/22 15:37:03;;;;;;;;;;;21.60;52.80;;;;;;4746639;55;20302;-26
2023/04/22 15:42:04;;;;;;;;;;;21.60;52.70;;;;;;4800091;55;20056;-32
2023/04/22 15:47:04;;;;;;;;;;;21.70;52.80;;;;;;4789809;55;20073;-28
2023/04/22 15:52:05;;;;;;;;;;;21.60;52.70;;;;;;4761556;55;20109;-30
2023/04/22 15:57:06;;;;;;;;;;;21.60;52.70;;;;;;4856176;55;20357;-31
2023/04/22 16:02:09;;;;;;;;;;;21.60;52.70;;;;;;4784193;55;20057;-29
2023/04/22 16:07:10;;;;;;;;;;;21.60;52.70;;;;;;4773367;55;20852;-32
2023/04/22 16:12:11;;;;;;;;;;;21.70;52.80;;;;;;4746777;55;20072;-27
2023/04/22 16:17:13;;;;;;;;;;;21.60;52.70;;;;;;4931169;55;20048;-31
2023/04/22 16:22:13;;;;;;;;;;;21.70;52.70;;;;;;4747426;55;20124;-30
2023/04/22 16:27:15;;;;;;;;;;;21.70;52.80;;;;;;4776906;55;20092;-32
2023/04/22 16:32:15;;;;;;;;;;;21.60;52.70;;;;;;4749578;55;20290;-32
2023/04/22 16:37:16;;;;;;;;;;;21.70;52.70;;;;;;4749457;55;20156;-31
2023/04/22 16:42:17;;;;;;;;;;;21.60;52.60;;;;;;4802043;55;20303;-29
2023/04/22 16:47:18;;;;;;;;;;;21.60;52.60;;;;;;4833190;55;20068;-30
2023/04/22 16:52:18;;;;;;;;;;;21.60;52.60;;;;;;4802776;55;20116;-28
2023/04/22 16:57:19;;;;;;;;;;;21.60;52.60;;;;;;4806382;55;20286;-29
2023/04/22 17:02:20;;;;;;;;;;;21.70;52.60;;;;;;4779116;55;20060;-28
2023/04/22 17:07:20;;;;;;;;;;;21.70;52.60;;;;;;4746366;58;20346;-28
2023/04/22 17:12:22;;;;;;;;;;;21.70;52.50;;;;;;4791817;55;20144;-27
2023/04/22 17:17:23;;;;;;;;;;;21.70;52.50;;;;;;4746386;58;20298;-30
2023/04/22 17:22:24;;;;;;;;;;;21.60;52.40;;;;;;4775576;55;20065;-32
2023/04/22 17:27:24;;;;;;;;;;;21.70;52.50;;;;;;4746198;58;20359;-29
2023/04/22 17:32:25;;;;;;;;;;;21.70;52.40;;;;;;4771051;55;20108;-27
2023/04/22 17:37:26;;;;;;;;;;;21.70;52.40;;;;;;4750933;55;20295;-26
2023/04/22 17:42:27;;;;;;;;;;;21.70;52.40;;;;;;4793268;55;20112;-28
2023/04/22 17:47:28;;;;;;;;;;;21.70;52.40;;;;;;4747734;55;20315;-28
2023/04/22 17:52:29;;;;;;;;;;;21.70;52.30;;;;;;4754930;55;20307;-27
2023/04/22 17:57:30;;;;;;;;;;;21.70;52.30;;;;;;4875478;55;20120;-26
2023/04/22 18:02:30;;;;;;;;;;;21.70;52.30;;;;;;4746737;58;20081;-28
2023/04/22 18:07:31;;;;;;;;;;;21.70;52.20;;;;;;4746101;57;20120;-27
2023/04/22 18:12:32;;;;;;;;;;;21.70;52.30;;;;;;4836415;55;20354;-28
2023/04/22 18:17:32;;;;;;;;;;;21.70;52.20;;;;;;4763376;55;20061;-27
2023/04/22 18:22:33;;;;;;;;;;;21.70;52.20;;;;;;4847201;55;20164;-31
2023/04/22 18:27:34;;;;;;;;;;;21.70;52.20;;;;;;4788154;55;20383;-30
2023/04/22 18:32:35;;;;;;;;;;;21.70;52.10;;;;;;4760811;55;20124;-30
2023/04/22 18:37:35;;;;;;;;;;;21.70;52.10;;;;;;4820747;55;20318;-28
2023/04/22 18:42:36;;;;;;;;;;;21.70;52.10;;;;;;4748235;55;20084;-28
2023/04/22 18:47:37;;;;;;;;;;;21.70;52.00;;;;;;4747188;55;20421;-29
2023/04/22 18:52:37;;;;;;;;;;;21.70;52.10;;;;;;4746581;58;20374;-28
2023/04/22 18:57:38;;;;;;;;;;;21.70;52.10;;;;;;4785118;55;20433;-26
2023/04/22 19:02:39;;;;;;;;;;;21.70;52.50;;;;;;4827143;55;20327;-30
2023/04/22 19:07:39;;;;;;;;;;;21.70;52.00;;;;;;4810013;55;20124;-28
2023/04/22 19:12:40;;;;;;;;;;;21.70;52.10;;;;;;4764751;55;20299;-31
2023/04/22 19:17:41;;;;;;;;;;;21.70;52.00;;;;;;4829987;55;20064;-29
2023/04/22 19:22:42;;;;;;;;;;;21.70;52.10;;;;;;4816396;55;20379;-30
2023/04/22 19:27:43;;;;;;;;;;;21.70;52.00;;;;;;4903487;55;20120;-29
2023/04/22 19:32:43;;;;;;;;;;;21.70;52.00;;;;;;4746196;58;20080;-30
2023/04/22 19:37:44;;;;;;;;;;;21.70;52.10;;;;;;4808015;55;20069;-25
2023/04/22 19:42:45;;;;;;;;;;;21.70;52.10;;;;;;4746759;58;20335;-30
2023/04/22 19:47:46;;;;;;;;;;;21.70;52.10;;;;;;4802798;55;20084;-27
2023/04/22 19:52:48;;;;;;;;;;;21.70;52.10;;;;;;4779323;55;20404;-28
2023/04/22 19:57:49;;;;;;;;;;;21.70;52.10;;;;;;4746719;58;20112;-31
2023/04/22 20:02:50;;;;;;;;;;;21.70;52.00;;;;;;4819835;55;20072;-31
2023/04/22 20:07:51;;;;;;;;;;;21.70;52.10;;;;;;4746481;58;20073;-30
2023/04/22 20:12:52;;;;;;;;;;;21.70;52.10;;;;;;4746470;58;20060;-28
2023/04/22 20:17:53;;;;;;;;;;;21.70;52.10;;;;;;4842212;55;20088;-28
2023/04/22 20:22:55;;;;;;;;;;;21.70;52.10;;;;;;4761451;55;20355;-28
2023/04/22 20:27:55;;;;;;;;;;;21.70;52.10;;;;;;4822109;55;20075;-28
2023/04/22 20:32:56;;;;;;;;;;;21.70;52.10;;;;;;4939312;54;20152;-27
2023/04/22 20:37:57;;;;;;;;;;;21.70;52.10;;;;;;4838023;55;20052;-28
2023/04/22 20:42:58;;;;;;;;;;;21.70;52.10;;;;;;4814294;55;20345;-27
2023/04/22 20:47:59;;;;;;;;;;;21.70;52.10;;;;;;4821979;55;20144;-26
2023/04/22 20:53:00;;;;;;;;;;;21.70;52.00;;;;;;4762061;55;20725;-29
2023/04/22 20:58:00;;;;;;;;;;;21.70;52.10;;;;;;4847993;55;20112;-32
2023/04/22 21:03:03;;;;;;;;;;;21.70;52.10;;;;;;4875535;55;20096;-29
2023/04/22 21:08:05;;;;;;;;;;;21.70;52.10;;;;;;4808972;55;20072;-28
2023/04/22 21:13:06;;;;;;;;;;;21.70;52.00;;;;;;4749873;55;20184;-30
2023/04/22 21:18:07;;;;;;;;;;;21.70;52.70;;;;;;4746677;58;20072;-29
2023/04/22 21:23:09;;;;;;;;;;;21.70;52.10;;;;;;4746543;58;20125;-29
2023/04/22 21:28:10;;;;;;;;;;;21.70;52.00;;;;;;4761722;55;20288;-29
2023/04/22 21:33:10;;;;;;;;;;;21.70;52.10;;;;;;4841119;54;20737;-30
2023/04/22 21:38:11;;;;;;;;;;;21.70;52.10;;;;;;4838341;55;20084;-28
2023/04/22 21:43:12;;;;;;;;;;;21.70;52.10;;;;;;4769490;55;20112;-31
2023/04/22 21:48:13;;;;;;;;;;;21.70;52.10;;;;;;4837000;55;20311;-28
2023/04/22 21:53:14;;;;;;;;;;;21.70;52.10;;;;;;4746114;58;20112;-29
2023/04/22 21:58:15;;;;;;;;;;;21.70;52.10;;;;;;4747705;55;20859;-28
2023/04/22 22:03:15;;;;;;;;;;;21.70;52.10;;;;;;4846564;55;20101;-27
2023/04/22 22:08:16;;;;;;;;;;;21.60;51.90;;;;;;4773732;55;20334;-27
2023/04/22 22:13:17;;;;;;;;;;;21.70;52.00;;;;;;4771100;55;20056;-29
2023/04/22 22:18:18;;;;;;;;;;;21.70;52.00;;;;;;4747210;58;20342;-28
2023/04/22 22:23:20;;;;;;;;;;;21.60;51.90;;;;;;4747208;55;20065;-28
2023/04/22 22:28:21;;;;;;;;;;;21.70;52.00;;;;;;4778633;55;20322;-28
2023/04/22 22:33:21;;;;;;;;;;;21.60;51.90;;;;;;4781922;54;20064;-27
2023/04/22 22:38:22;;;;;;;;;;;21.60;51.90;;;;;;4751548;55;20287;-28
2023/04/22 22:43:22;;;;;;;;;;;21.70;51.90;;;;;;4762915;55;20104;-28
2023/04/22 22:48:23;;;;;;;;;;;21.70;51.90;;;;;;4810667;55;20136;-31
2023/04/22 22:53:24;;;;;;;;;;;21.70;51.90;;;;;;4851222;55;20375;-31
2023/04/22 22:58:25;;;;;;;;;;;21.70;52.00;;;;;;4747200;58;20275;-28
2023/04/22 23:03:26;;;;;;;;;;;21.70;52.10;;;;;;4810571;55;20164;-29
2023/04/22 23:08:27;;;;;;;;;;;21.70;52.00;;;;;;4762868;55;20053;-31
2023/04/22 23:13:27;;;;;;;;;;;21.70;51.80;;;;;;4749000;55;20382;-28
2023/04/22 23:18:28;;;;;;;;;;;21.70;51.90;;;;;;4783354;55;20077;-31
2023/04/22 23:23:29;;;;;;;;;;;21.60;51.90;;;;;;4749893;55;20283;-31
2023/04/22 23:28:30;;;;;;;;;;;21.60;51.80;;;;;;4748322;55;20132;-29
2023/04/22 23:33:33;;;;;;;;;;;21.60;51.70;;;;;;4775563;55;20287;-30
2023/04/22 23:38:34;;;;;;;;;;;21.60;51.80;;;;;;4746616;58;20068;-33
2023/04/22 23:43:35;;;;;;;;;;;21.60;51.80;;;;;;4746629;55;20382;-32
2023/04/22 23:48:36;;;;;;;;;;;21.60;51.80;;;;;;4794909;55;20123;-32
2023/04/22 23:53:37;;;;;;;;;;;21.60;51.80;;;;;;4850126;55;20075;-33
2023/04/22 23:58:38;;;;;;;;;;;21.60;51.70;;;;;;4897455;55;20052;-31
